Rio Mitong — D6GE6 — position and weather

sailwx.info

Track history (hours):
 
Tides and Currents Weather Stations Pressure Air Temp Water Temp Dewpoint Dewpoint Depression Visibility Wind Speed Wind Dir Waves Ship Positions

Rio Mitong

Last reported at 2018-Feb-09 20:00 UTC. Time now 2018-Feb-21 03:58 UTC.
Position N 28°47' W 013°18'.
Warning: this ship's position is 11 days out of date.

Length 122 m; draft 8.6 m.

Type: Cargo ship. MMSI: 616999031.

Date/timePositionNaut miles runAvg speedWind from/ knotsBaromVisibWave heightAir tempDewpointWater temp
2018-Feb-09 20:00N 28°47' W 013°18'  
2018-Feb-07 07:03N 37°57' W 009°45'0 8.8
2018-Feb-07 07:00N 37°57' W 009°45'5 9.1
2018-Feb-07 06:30N 37°60' W 009°40'5 9.4
2018-Feb-07 06:00N 38°02' W 009°35'5 9.5
2018-Feb-07 05:30N 38°05' W 009°30'5 9.6
2018-Feb-07 05:00N 38°08' W 009°25'5 9.6
2018-Feb-07 04:30N 38°10' W 009°20'5 9.6
2018-Feb-07 04:00N 38°13' W 009°14'5 9.8
2018-Feb-07 03:30N 38°16' W 009°10'5 9.8
2018-Feb-07 03:00N 38°20' W 009°06'510.1
2018-Feb-07 02:30N 38°24' W 009°02'5 9.4
2018-Feb-07 02:00N 38°27' W 008°58'5 9.3
2018-Feb-07 01:30N 38°31' W 008°54'1 1.8
2018-Feb-07 01:00N 38°31' W 008°53'0 0.0
2018-Feb-07 00:27N 38°31' W 008°53'0 0.0
2018-Feb-07 00:00N 38°31' W 008°53'0 0.0
2018-Feb-06 23:24N 38°31' W 008°53'0 0.0
2018-Feb-06 23:00N 38°31' W 008°53'0 0.0
2018-Feb-06 22:27N 38°31' W 008°53'0 0.0
2018-Feb-06 21:15N 38°31' W 008°53'0 0.0
2018-Feb-06 21:00N 38°31' W 008°53'0 0.0
2018-Feb-06 20:18N 38°31' W 008°53'0 0.0
2018-Feb-06 19:18N 38°31' W 008°53'0 0.0
2018-Feb-06 18:45N 38°31' W 008°53'0 0.0
2018-Feb-06 18:27N 38°31' W 008°53'0 0.0
2018-Feb-06 17:57N 38°31' W 008°53'0 0.0
2018-Feb-06 17:12N 38°31' W 008°53'0 0.0
2018-Feb-06 17:00N 38°31' W 008°53'0 0.0
2018-Feb-06 16:21N 38°31' W 008°53'0 0.0
2018-Feb-06 15:51N 38°31' W 008°53'0 0.0
2018-Feb-06 15:27N 38°31' W 008°53'0 0.0
2018-Feb-06 15:00N 38°31' W 008°53'0 0.0
2018-Feb-06 14:27N 38°31' W 008°53'0 0.0
2018-Feb-06 14:00N 38°31' W 008°53'0 0.0
2018-Feb-06 13:09N 38°31' W 008°53'0 0.0
2018-Feb-06 12:39N 38°31' W 008°53'0 0.0
2018-Feb-06 12:09N 38°31' W 008°53'0 0.0
2018-Feb-06 11:54N 38°31' W 008°53'0 0.0
2018-Feb-06 11:24N 38°31' W 008°53'0 0.0
2018-Feb-06 11:00N 38°31' W 008°53'0 0.0
2018-Feb-06 10:27N 38°31' W 008°53'0 0.0
2018-Feb-06 10:00N 38°31' W 008°53'0 0.0
2018-Feb-06 09:18N 38°31' W 008°53'0 0.1
2018-Feb-06 09:00N 38°31' W 008°53'1 2.0
2018-Feb-06 08:30N 38°31' W 008°54'0 0.2
2018-Feb-06 08:00N 38°31' W 008°54'0 0.1
2018-Feb-06 07:18N 38°31' W 008°54'0 0.1
2018-Feb-06 06:54N 38°31' W 008°54'0 0.0
2018-Feb-06 06:30N 38°31' W 008°54'0 0.0
2018-Feb-06 05:54N 38°31' W 008°54'0 0.0
2018-Feb-06 05:30N 38°31' W 008°54'0 0.0
2018-Feb-06 04:48N 38°31' W 008°54'0 0.0
2018-Feb-06 04:30N 38°31' W 008°54'0 0.0
2018-Feb-06 03:00N 38°31' W 008°54'0 0.1
2018-Feb-06 02:24N 38°31' W 008°54'0 0.0
2018-Feb-06 02:00N 38°31' W 008°54'0 0.0
2018-Feb-06 01:30N 38°31' W 008°54'0 0.0
2018-Feb-06 01:00N 38°31' W 008°54'0 0.0
2018-Feb-06 00:30N 38°31' W 008°54'0 0.0
2018-Feb-06 00:00N 38°31' W 008°54'0 0.1
2018-Feb-05 23:30N 38°31' W 008°54'0 0.0
2018-Feb-05 19:48N 38°31' W 008°54'0 0.1
2018-Feb-05 19:18N 38°31' W 008°54'0 0.1
2018-Feb-05 19:00N 38°31' W 008°54'0 0.0
2018-Feb-05 18:15N 38°31' W 008°54'0 0.1
2018-Feb-05 18:00N 38°31' W 008°54'0 0.0
2018-Feb-05 17:27N 38°31' W 008°54'0 0.0
2018-Feb-05 16:57N 38°31' W 008°54'0 0.0
2018-Feb-05 16:30N 38°31' W 008°54'0 0.0
2018-Feb-05 16:00N 38°31' W 008°54'0 0.0
2018-Feb-05 15:30N 38°31' W 008°54'0 0.0
2018-Feb-05 14:45N 38°31' W 008°54'0 0.0
2018-Feb-05 14:24N 38°31' W 008°54'0 0.0
2018-Feb-05 13:54N 38°31' W 008°54'0 0.0
2018-Feb-05 13:27N 38°31' W 008°54'0 0.1
2018-Feb-05 13:00N 38°31' W 008°54'0 0.1
2018-Feb-05 12:27N 38°31' W 008°54'0 0.0
2018-Feb-05 09:30N 38°31' W 008°54'0 0.0
2018-Feb-05 08:15N 38°31' W 008°54'0 0.1
2018-Feb-05 08:00N 38°31' W 008°54'0 0.0
2018-Feb-05 07:24N 38°31' W 008°54'0 0.1
2018-Feb-05 06:57N 38°31' W 008°54'0 0.2
2018-Feb-05 06:30N 38°31' W 008°54'0 0.0
2018-Feb-05 05:03N 38°31' W 008°54'0 0.0
2018-Feb-05 04:51N 38°31' W 008°54'0 0.0
2018-Feb-05 04:27N 38°31' W 008°54'0 0.0
2018-Feb-05 03:48N 38°31' W 008°54'0 0.0
2018-Feb-05 03:21N 38°31' W 008°54'0 0.0
2018-Feb-05 03:00N 38°31' W 008°54'0 0.0
2018-Feb-05 02:21N 38°31' W 008°54'0 0.0
2018-Feb-05 02:00N 38°31' W 008°54'0 0.0
2018-Feb-05 01:30N 38°31' W 008°54'0 0.0
2018-Feb-05 01:00N 38°31' W 008°54'0 0.0
2018-Feb-05 00:24N 38°31' W 008°54'0 0.1
2018-Feb-04 23:57N 38°31' W 008°54'0 0.1
2018-Feb-04 23:30N 38°31' W 008°54'0 0.1
2018-Feb-04 23:00N 38°31' W 008°54'0 0.0
2018-Feb-04 19:24N 38°31' W 008°54'0 0.1
2018-Feb-04 19:00N 38°31' W 008°54'0 0.2
2018-Feb-04 18:30N 38°31' W 008°54'0 0.1
2018-Feb-04 18:00N 38°31' W 008°54'0 0.0
2018-Feb-04 17:30N 38°31' W 008°54'0 0.0
2018-Feb-04 15:27N 38°31' W 008°54'0 0.0
2018-Feb-04 15:00N 38°31' W 008°54'0 0.1
2018-Feb-04 14:24N 38°31' W 008°54'0 0.0
2018-Feb-04 13:45N 38°31' W 008°54'0 0.0
2018-Feb-04 13:24N 38°31' W 008°54'0 0.0
2018-Feb-04 13:00N 38°31' W 008°54'0 0.0
2018-Feb-04 12:27N 38°31' W 008°54'0 0.1
2018-Feb-04 12:00N 38°31' W 008°54'0 0.1
2018-Feb-04 11:30N 38°31' W 008°54'0 0.1
2018-Feb-04 09:54N 38°31' W 008°54'0 0.0
2018-Feb-04 08:00N 38°31' W 008°54'0 0.0
2018-Feb-04 07:09N 38°31' W 008°54'0 0.1
2018-Feb-04 07:00N 38°31' W 008°54'0 0.1
2018-Feb-04 06:21N 38°31' W 008°54'0 0.2
2018-Feb-04 05:57N 38°31' W 008°54'0 0.1
2018-Feb-04 05:30N 38°31' W 008°54'0 0.0
2018-Feb-04 04:39N 38°31' W 008°54'0 0.0
2018-Feb-04 04:12N 38°31' W 008°54'0 0.1
2018-Feb-04 04:00N 38°31' W 008°54'0 0.0
2018-Feb-04 03:30N 38°31' W 008°54'0 0.0
2018-Feb-04 03:00N 38°31' W 008°54'0 0.0
2018-Feb-04 02:09N 38°31' W 008°54'0 0.0
2018-Feb-04 02:00N 38°31' W 008°54'0 0.0
2018-Feb-04 01:27N 38°31' W 008°54'0 0.0
2018-Feb-04 00:57N 38°31' W 008°54'0 0.0
2018-Feb-04 00:30N 38°31' W 008°54'0 0.0
2018-Feb-04 00:00N 38°31' W 008°54'0 0.0
2018-Feb-03 23:30N 38°31' W 008°54'0 0.1
2018-Feb-03 23:00N 38°31' W 008°54'0 0.1
2018-Feb-03 22:30N 38°31' W 008°54'0 0.1
2018-Feb-03 21:54N 38°31' W 008°54'0 0.0
2018-Feb-03 21:12N 38°31' W 008°54'0 0.0
2018-Feb-03 20:12N 38°31' W 008°54'0 0.1
2018-Feb-03 18:30N 38°31' W 008°54'0 0.1
2018-Feb-03 17:48N 38°31' W 008°54'0 0.0
2018-Feb-03 17:30N 38°31' W 008°54'0 0.0
2018-Feb-03 16:57N 38°31' W 008°54'0 0.0
2018-Feb-03 16:00N 38°31' W 008°54'0 0.0
2018-Feb-03 15:27N 38°31' W 008°54'0 0.0
2018-Feb-03 14:42N 38°31' W 008°54'0 0.0
2018-Feb-03 14:30N 38°31' W 008°54'0 0.0
2018-Feb-03 13:51N 38°31' W 008°54'0 0.0
2018-Feb-03 13:30N 38°31' W 008°54'0 0.0
2018-Feb-03 12:57N 38°31' W 008°54'0 0.0
2018-Feb-03 12:18N 38°31' W 008°54'0 0.1
2018-Feb-03 12:00N 38°31' W 008°54'0 0.1
2018-Feb-03 11:30N 38°31' W 008°54'2 3.5
2018-Feb-03 11:00N 38°29' W 008°56'0 0.5
2018-Feb-03 10:30N 38°30' W 008°56'0 0.0
2018-Feb-03 10:00N 38°30' W 008°56'0 0.0
2018-Feb-03 09:30N 38°30' W 008°56'0 0.0
2018-Feb-03 09:00N 38°30' W 008°56'0 0.0
2018-Feb-03 08:30N 38°30' W 008°56'0 0.0
2018-Feb-03 07:57N 38°30' W 008°56'0 0.0
2018-Feb-03 06:27N 38°30' W 008°56'0 0.0
2018-Feb-03 06:00N 38°30' W 008°56'0 0.0
2018-Feb-03 05:30N 38°30' W 008°56'0 0.0
2018-Feb-03 05:00N 38°30' W 008°56'0 0.0
2018-Feb-03 04:00N 38°30' W 008°56'0 0.0
2018-Feb-03 03:30N 38°30' W 008°56'0 0.0
2018-Feb-03 02:00N 38°30' W 008°56'0 0.0
2018-Feb-03 01:30N 38°30' W 008°56'0 0.0
2018-Feb-03 01:00N 38°30' W 008°56'0 0.0
2018-Feb-03 00:30N 38°30' W 008°56'0 0.0
2018-Feb-02 23:45N 38°30' W 008°56'0 0.0
2018-Feb-02 23:30N 38°30' W 008°56'0 0.0
2018-Feb-02 22:45N 38°30' W 008°56'0 0.0
2018-Feb-02 22:30N 38°30' W 008°56'0 0.0
2018-Feb-02 21:54N 38°30' W 008°56'0 0.0
2018-Feb-02 21:30N 38°30' W 008°56'0 0.0
2018-Feb-02 20:54N 38°30' W 008°56'0 0.0
2018-Feb-02 20:30N 38°30' W 008°56'0 0.0
2018-Feb-02 20:00N 38°30' W 008°56'0 0.0
2018-Feb-02 19:00N 38°30' W 008°56'0 0.0
2018-Feb-02 18:27N 38°30' W 008°56'0 0.0
2018-Feb-02 18:00N 38°30' W 008°56'0 0.0
2018-Feb-02 17:27N 38°30' W 008°56'0 0.0
2018-Feb-02 17:00N 38°30' W 008°56'0 0.0
2018-Feb-02 16:30N 38°30' W 008°56'0 0.0
2018-Feb-02 15:30N 38°30' W 008°56'0 0.0
2018-Feb-02 14:30N 38°30' W 008°56'0 0.0
2018-Feb-02 14:00N 38°30' W 008°56'0 0.0
2018-Feb-02 13:30N 38°30' W 008°56'0 0.0
2018-Feb-02 12:57N 38°30' W 008°56'0 0.0
2018-Feb-02 12:30N 38°30' W 008°56'0 0.0
2018-Feb-02 12:00N 38°30' W 008°56'0 0.0
2018-Feb-02 11:30N 38°30' W 008°56'0 0.0
2018-Feb-02 11:00N 38°30' W 008°56'0 0.0
2018-Feb-02 10:30N 38°30' W 008°56'0 0.0
2018-Feb-02 10:00N 38°30' W 008°56'0 0.0
2018-Feb-02 09:30N 38°30' W 008°56'0 0.0
2018-Feb-02 08:57N 38°30' W 008°56'0 0.0
2018-Feb-02 08:30N 38°30' W 008°56'0 0.0
2018-Feb-02 07:57N 38°30' W 008°56'0 0.0
2018-Feb-02 07:27N 38°30' W 008°56'0 0.0
2018-Feb-02 06:54N 38°30' W 008°56'0 0.0
2018-Feb-02 06:27N 38°30' W 008°56'0 0.0
2018-Feb-02 06:00N 38°30' W 008°56'0 0.0
2018-Feb-02 05:27N 38°30' W 008°56'0 0.0
2018-Feb-02 05:00N 38°30' W 008°56'0 0.0
2018-Feb-02 04:24N 38°30' W 008°56'0 0.0
2018-Feb-02 03:51N 38°30' W 008°56'0 0.0
2018-Feb-02 03:27N 38°30' W 008°56'0 0.0
2018-Feb-02 02:51N 38°30' W 008°56'0 0.0
2018-Feb-02 02:27N 38°30' W 008°56'0 0.0
2018-Feb-02 01:57N 38°30' W 008°56'0 0.0
2018-Feb-02 01:30N 38°30' W 008°56'0 0.0
2018-Feb-02 00:57N 38°30' W 008°56'0 0.0
2018-Feb-02 00:27N 38°30' W 008°56'0 0.0
2018-Feb-01 23:45N 38°30' W 008°56'0 0.0
2018-Feb-01 23:18N 38°30' W 008°56'0 0.0
2018-Feb-01 23:00N 38°30' W 008°56'0 0.0
2018-Feb-01 22:00N 38°30' W 008°56'0 0.0
2018-Feb-01 21:24N 38°30' W 008°56'0 0.0
2018-Feb-01 19:30N 38°30' W 008°56'0 0.0
2018-Feb-01 18:54N 38°30' W 008°56'0 0.0
2018-Feb-01 18:30N 38°30' W 008°56'0 0.0
2018-Feb-01 17:51N 38°30' W 008°56'0 0.0
2018-Feb-01 17:30N 38°30' W 008°56'0 0.0
2018-Feb-01 17:00N 38°30' W 008°56'0 0.0
2018-Feb-01 16:27N 38°30' W 008°56'0 0.0
2018-Feb-01 16:00N 38°30' W 008°56'0 0.0
2018-Feb-01 15:30N 38°30' W 008°56'0 0.0
2018-Feb-01 15:00N 38°30' W 008°56'0 0.0
2018-Feb-01 13:30N 38°30' W 008°56'0 0.0
2018-Feb-01 12:54N 38°30' W 008°56'0 0.0
2018-Feb-01 12:27N 38°30' W 008°56'0 0.0
2018-Feb-01 12:00N 38°30' W 008°56'0 0.0
2018-Feb-01 10:57N 38°30' W 008°56'0 0.0
2018-Feb-01 10:30N 38°30' W 008°56'0 0.0
2018-Feb-01 10:00N 38°30' W 008°56'0 0.0
2018-Feb-01 09:30N 38°30' W 008°56'0 0.0
2018-Feb-01 09:00N 38°30' W 008°56'0 0.0
2018-Feb-01 08:30N 38°30' W 008°56'0 0.0
2018-Feb-01 07:30N 38°30' W 008°56'0 0.0
2018-Feb-01 07:00N 38°30' W 008°56'0 0.0
2018-Feb-01 06:30N 38°30' W 008°56'0 0.0
2018-Feb-01 05:57N 38°30' W 008°56'0 0.0
2018-Feb-01 05:30N 38°30' W 008°56'0 0.0
2018-Feb-01 05:00N 38°30' W 008°56'0 0.0
2018-Feb-01 04:30N 38°30' W 008°56'0 0.0
2018-Feb-01 04:00N 38°30' W 008°56'0 0.0
2018-Feb-01 02:51N 38°30' W 008°56'0 0.0
2018-Feb-01 02:27N 38°30' W 008°56'0 0.0
2018-Feb-01 01:54N 38°30' W 008°56'0 0.0
2018-Feb-01 01:30N 38°30' W 008°56'0 0.0
2018-Feb-01 01:00N 38°30' W 008°56'0 0.0
2018-Feb-01 00:30N 38°30' W 008°56'0 0.0
2018-Jan-31 23:57N 38°30' W 008°56'0 0.0
2018-Jan-31 23:00N 38°30' W 008°56'0 0.0
2018-Jan-31 22:30N 38°30' W 008°56'0 0.0
2018-Jan-31 21:00N 38°30' W 008°56'0 0.0
2018-Jan-31 20:30N 38°30' W 008°56'0 0.0
2018-Jan-31 20:00N 38°30' W 008°56'0 0.0
2018-Jan-31 19:30N 38°30' W 008°56'0 0.0
2018-Jan-31 19:00N 38°30' W 008°56'0 0.0
2018-Jan-31 18:30N 38°30' W 008°56'0 0.0
2018-Jan-31 18:00N 38°30' W 008°56'0 0.0
2018-Jan-31 17:30N 38°30' W 008°56'0 0.0
2018-Jan-31 17:00N 38°30' W 008°56'0 0.0
2018-Jan-31 16:30N 38°30' W 008°56'0 0.0
2018-Jan-31 16:00N 38°30' W 008°56'0 0.0
2018-Jan-31 15:30N 38°30' W 008°56'0 0.0
2018-Jan-31 15:00N 38°30' W 008°56'0 0.0
2018-Jan-31 14:30N 38°30' W 008°56'0 0.0
2018-Jan-31 12:57N 38°30' W 008°56'0 0.0
2018-Jan-31 12:30N 38°30' W 008°56'0 0.0
2018-Jan-31 12:00N 38°30' W 008°56'0 0.0
2018-Jan-31 11:30N 38°30' W 008°56'0 0.0
2018-Jan-31 11:00N 38°30' W 008°56'0 0.0
2018-Jan-31 10:30N 38°30' W 008°56'0 0.0
2018-Jan-31 10:00N 38°30' W 008°56'0 0.0
2018-Jan-31 09:30N 38°30' W 008°56'0 0.0
2018-Jan-31 09:00N 38°30' W 008°56'0 0.0
2018-Jan-31 08:27N 38°30' W 008°56'0 0.0
2018-Jan-31 08:00N 38°30' W 008°56'0 0.0
2018-Jan-31 07:30N 38°30' W 008°56'0 0.0
2018-Jan-31 06:57N 38°30' W 008°56'0 0.0
2018-Jan-31 06:30N 38°30' W 008°56'0 0.0
2018-Jan-31 06:00N 38°30' W 008°56'0 0.0
2018-Jan-31 05:30N 38°30' W 008°56'0 0.0
2018-Jan-31 05:00N 38°30' W 008°56'0 0.0
2018-Jan-31 04:30N 38°30' W 008°56'0 0.0
2018-Jan-31 04:00N 38°30' W 008°56'0 0.0
2018-Jan-31 03:30N 38°30' W 008°56'0 0.0
2018-Jan-31 03:00N 38°30' W 008°56'0 0.0
2018-Jan-31 02:30N 38°30' W 008°56'0 0.0
2018-Jan-31 02:00N 38°30' W 008°56'0 0.0
2018-Jan-31 01:30N 38°30' W 008°56'0 0.0
2018-Jan-31 01:00N 38°30' W 008°56'0 0.0
2018-Jan-31 00:00N 38°30' W 008°56'0 0.0
2018-Jan-30 23:30N 38°30' W 008°56'0 0.0
2018-Jan-30 23:00N 38°30' W 008°56'0 0.0
2018-Jan-30 22:24N 38°30' W 008°56'0 0.0
2018-Jan-30 21:30N 38°30' W 008°56'0 0.0
2018-Jan-30 21:00N 38°30' W 008°56'0 0.4
2018-Jan-30 20:30N 38°29' W 008°56'3 5.1
2018-Jan-30 20:00N 38°27' W 008°58'  
Track history (hours):
 
Tides and Currents Weather Stations Pressure Air Temp Water Temp Dewpoint Dewpoint Depression Visibility Wind Speed Wind Dir Waves Ship Positions

Rio Mitong

Last reported at 2018-Feb-09 20:00 UTC. Time now 2018-Feb-21 03:58 UTC.
Position N 28°47' W 013°18'.
Warning: this ship's position is 11 days out of date.

Length 122 m; draft 8.6 m.

Type: Cargo ship. MMSI: 616999031.

Date/timePositionNaut miles runAvg speedWind from/ knotsBaromVisibWave heightAir tempDewpointWater temp
2018-Feb-09 20:00N 28°47' W 013°18'  
2018-Feb-07 07:03N 37°57' W 009°45'0 8.8
2018-Feb-07 07:00N 37°57' W 009°45'5 9.1
2018-Feb-07 06:30N 37°60' W 009°40'5 9.4
2018-Feb-07 06:00N 38°02' W 009°35'5 9.5
2018-Feb-07 05:30N 38°05' W 009°30'5 9.6
2018-Feb-07 05:00N 38°08' W 009°25'5 9.6
2018-Feb-07 04:30N 38°10' W 009°20'5 9.6
2018-Feb-07 04:00N 38°13' W 009°14'5 9.8
2018-Feb-07 03:30N 38°16' W 009°10'5 9.8
2018-Feb-07 03:00N 38°20' W 009°06'510.1
2018-Feb-07 02:30N 38°24' W 009°02'5 9.4
2018-Feb-07 02:00N 38°27' W 008°58'5 9.3
2018-Feb-07 01:30N 38°31' W 008°54'1 1.8
2018-Feb-07 01:00N 38°31' W 008°53'0 0.0
2018-Feb-07 00:27N 38°31' W 008°53'0 0.0
2018-Feb-07 00:00N 38°31' W 008°53'0 0.0
2018-Feb-06 23:24N 38°31' W 008°53'0 0.0
2018-Feb-06 23:00N 38°31' W 008°53'0 0.0
2018-Feb-06 22:27N 38°31' W 008°53'0 0.0
2018-Feb-06 21:15N 38°31' W 008°53'0 0.0
2018-Feb-06 21:00N 38°31' W 008°53'0 0.0
2018-Feb-06 20:18N 38°31' W 008°53'0 0.0
2018-Feb-06 19:18N 38°31' W 008°53'0 0.0
2018-Feb-06 18:45N 38°31' W 008°53'0 0.0
2018-Feb-06 18:27N 38°31' W 008°53'0 0.0
2018-Feb-06 17:57N 38°31' W 008°53'0 0.0
2018-Feb-06 17:12N 38°31' W 008°53'0 0.0
2018-Feb-06 17:00N 38°31' W 008°53'0 0.0
2018-Feb-06 16:21N 38°31' W 008°53'0 0.0
2018-Feb-06 15:51N 38°31' W 008°53'0 0.0
2018-Feb-06 15:27N 38°31' W 008°53'0 0.0
2018-Feb-06 15:00N 38°31' W 008°53'0 0.0
2018-Feb-06 14:27N 38°31' W 008°53'0 0.0
2018-Feb-06 14:00N 38°31' W 008°53'0 0.0
2018-Feb-06 13:09N 38°31' W 008°53'0 0.0
2018-Feb-06 12:39N 38°31' W 008°53'0 0.0
2018-Feb-06 12:09N 38°31' W 008°53'0 0.0
2018-Feb-06 11:54N 38°31' W 008°53'0 0.0
2018-Feb-06 11:24N 38°31' W 008°53'0 0.0
2018-Feb-06 11:00N 38°31' W 008°53'0 0.0
2018-Feb-06 10:27N 38°31' W 008°53'0 0.0
2018-Feb-06 10:00N 38°31' W 008°53'0 0.0
2018-Feb-06 09:18N 38°31' W 008°53'0 0.1
2018-Feb-06 09:00N 38°31' W 008°53'1 2.0
2018-Feb-06 08:30N 38°31' W 008°54'0 0.2
2018-Feb-06 08:00N 38°31' W 008°54'0 0.1
2018-Feb-06 07:18N 38°31' W 008°54'0 0.1
2018-Feb-06 06:54N 38°31' W 008°54'0 0.0
2018-Feb-06 06:30N 38°31' W 008°54'0 0.0
2018-Feb-06 05:54N 38°31' W 008°54'0 0.0
2018-Feb-06 05:30N 38°31' W 008°54'0 0.0
2018-Feb-06 04:48N 38°31' W 008°54'0 0.0
2018-Feb-06 04:30N 38°31' W 008°54'0 0.0
2018-Feb-06 03:00N 38°31' W 008°54'0 0.1
2018-Feb-06 02:24N 38°31' W 008°54'0 0.0
2018-Feb-06 02:00N 38°31' W 008°54'0 0.0
2018-Feb-06 01:30N 38°31' W 008°54'0 0.0
2018-Feb-06 01:00N 38°31' W 008°54'0 0.0
2018-Feb-06 00:30N 38°31' W 008°54'0 0.0
2018-Feb-06 00:00N 38°31' W 008°54'0 0.1
2018-Feb-05 23:30N 38°31' W 008°54'0 0.0
2018-Feb-05 19:48N 38°31' W 008°54'0 0.1
2018-Feb-05 19:18N 38°31' W 008°54'0 0.1
2018-Feb-05 19:00N 38°31' W 008°54'0 0.0
2018-Feb-05 18:15N 38°31' W 008°54'0 0.1
2018-Feb-05 18:00N 38°31' W 008°54'0 0.0
2018-Feb-05 17:27N 38°31' W 008°54'0 0.0
2018-Feb-05 16:57N 38°31' W 008°54'0 0.0
2018-Feb-05 16:30N 38°31' W 008°54'0 0.0
2018-Feb-05 16:00N 38°31' W 008°54'0 0.0
2018-Feb-05 15:30N 38°31' W 008°54'0 0.0
2018-Feb-05 14:45N 38°31' W 008°54'0 0.0
2018-Feb-05 14:24N 38°31' W 008°54'0 0.0
2018-Feb-05 13:54N 38°31' W 008°54'0 0.0
2018-Feb-05 13:27N 38°31' W 008°54'0 0.1
2018-Feb-05 13:00N 38°31' W 008°54'0 0.1
2018-Feb-05 12:27N 38°31' W 008°54'0 0.0
2018-Feb-05 09:30N 38°31' W 008°54'0 0.0
2018-Feb-05 08:15N 38°31' W 008°54'0 0.1
2018-Feb-05 08:00N 38°31' W 008°54'0 0.0
2018-Feb-05 07:24N 38°31' W 008°54'0 0.1
2018-Feb-05 06:57N 38°31' W 008°54'0 0.2
2018-Feb-05 06:30N 38°31' W 008°54'0 0.0
2018-Feb-05 05:03N 38°31' W 008°54'0 0.0
2018-Feb-05 04:51N 38°31' W 008°54'0 0.0
2018-Feb-05 04:27N 38°31' W 008°54'0 0.0
2018-Feb-05 03:48N 38°31' W 008°54'0 0.0
2018-Feb-05 03:21N 38°31' W 008°54'0 0.0
2018-Feb-05 03:00N 38°31' W 008°54'0 0.0
2018-Feb-05 02:21N 38°31' W 008°54'0 0.0
2018-Feb-05 02:00N 38°31' W 008°54'0 0.0
2018-Feb-05 01:30N 38°31' W 008°54'0 0.0
2018-Feb-05 01:00N 38°31' W 008°54'0 0.0
2018-Feb-05 00:24N 38°31' W 008°54'0 0.1
2018-Feb-04 23:57N 38°31' W 008°54'0 0.1
2018-Feb-04 23:30N 38°31' W 008°54'0 0.1
2018-Feb-04 23:00N 38°31' W 008°54'0 0.0
2018-Feb-04 19:24N 38°31' W 008°54'0 0.1
2018-Feb-04 19:00N 38°31' W 008°54'0 0.2
2018-Feb-04 18:30N 38°31' W 008°54'0 0.1
2018-Feb-04 18:00N 38°31' W 008°54'0 0.0
2018-Feb-04 17:30N 38°31' W 008°54'0 0.0
2018-Feb-04 15:27N 38°31' W 008°54'0 0.0
2018-Feb-04 15:00N 38°31' W 008°54'0 0.1
2018-Feb-04 14:24N 38°31' W 008°54'0 0.0
2018-Feb-04 13:45N 38°31' W 008°54'0 0.0
2018-Feb-04 13:24N 38°31' W 008°54'0 0.0
2018-Feb-04 13:00N 38°31' W 008°54'0 0.0
2018-Feb-04 12:27N 38°31' W 008°54'0 0.1
2018-Feb-04 12:00N 38°31' W 008°54'0 0.1
2018-Feb-04 11:30N 38°31' W 008°54'0 0.1
2018-Feb-04 09:54N 38°31' W 008°54'0 0.0
2018-Feb-04 08:00N 38°31' W 008°54'0 0.0
2018-Feb-04 07:09N 38°31' W 008°54'0 0.1
2018-Feb-04 07:00N 38°31' W 008°54'0 0.1
2018-Feb-04 06:21N 38°31' W 008°54'0 0.2
2018-Feb-04 05:57N 38°31' W 008°54'0 0.1
2018-Feb-04 05:30N 38°31' W 008°54'0 0.0
2018-Feb-04 04:39N 38°31' W 008°54'0 0.0
2018-Feb-04 04:12N 38°31' W 008°54'0 0.1
2018-Feb-04 04:00N 38°31' W 008°54'0 0.0
2018-Feb-04 03:30N 38°31' W 008°54'0 0.0
2018-Feb-04 03:00N 38°31' W 008°54'0 0.0
2018-Feb-04 02:09N 38°31' W 008°54'0 0.0
2018-Feb-04 02:00N 38°31' W 008°54'0 0.0
2018-Feb-04 01:27N 38°31' W 008°54'0 0.0
2018-Feb-04 00:57N 38°31' W 008°54'0 0.0
2018-Feb-04 00:30N 38°31' W 008°54'0 0.0
2018-Feb-04 00:00N 38°31' W 008°54'0 0.0
2018-Feb-03 23:30N 38°31' W 008°54'0 0.1
2018-Feb-03 23:00N 38°31' W 008°54'0 0.1
2018-Feb-03 22:30N 38°31' W 008°54'0 0.1
2018-Feb-03 21:54N 38°31' W 008°54'0 0.0
2018-Feb-03 21:12N 38°31' W 008°54'0 0.0
2018-Feb-03 20:12N 38°31' W 008°54'0 0.1
2018-Feb-03 18:30N 38°31' W 008°54'0 0.1
2018-Feb-03 17:48N 38°31' W 008°54'0 0.0
2018-Feb-03 17:30N 38°31' W 008°54'0 0.0
2018-Feb-03 16:57N 38°31' W 008°54'0 0.0
2018-Feb-03 16:00N 38°31' W 008°54'0 0.0
2018-Feb-03 15:27N 38°31' W 008°54'0 0.0
2018-Feb-03 14:42N 38°31' W 008°54'0 0.0
2018-Feb-03 14:30N 38°31' W 008°54'0 0.0
2018-Feb-03 13:51N 38°31' W 008°54'0 0.0
2018-Feb-03 13:30N 38°31' W 008°54'0 0.0
2018-Feb-03 12:57N 38°31' W 008°54'0 0.0
2018-Feb-03 12:18N 38°31' W 008°54'0 0.1
2018-Feb-03 12:00N 38°31' W 008°54'0 0.1
2018-Feb-03 11:30N 38°31' W 008°54'2 3.5
2018-Feb-03 11:00N 38°29' W 008°56'0 0.5
2018-Feb-03 10:30N 38°30' W 008°56'0 0.0
2018-Feb-03 10:00N 38°30' W 008°56'0 0.0
2018-Feb-03 09:30N 38°30' W 008°56'0 0.0
2018-Feb-03 09:00N 38°30' W 008°56'0 0.0
2018-Feb-03 08:30N 38°30' W 008°56'0 0.0
2018-Feb-03 07:57N 38°30' W 008°56'0 0.0
2018-Feb-03 06:27N 38°30' W 008°56'0 0.0
2018-Feb-03 06:00N 38°30' W 008°56'0 0.0
2018-Feb-03 05:30N 38°30' W 008°56'0 0.0
2018-Feb-03 05:00N 38°30' W 008°56'0 0.0
2018-Feb-03 04:00N 38°30' W 008°56'0 0.0
2018-Feb-03 03:30N 38°30' W 008°56'0 0.0
2018-Feb-03 02:00N 38°30' W 008°56'0 0.0
2018-Feb-03 01:30N 38°30' W 008°56'0 0.0
2018-Feb-03 01:00N 38°30' W 008°56'0 0.0
2018-Feb-03 00:30N 38°30' W 008°56'0 0.0
2018-Feb-02 23:45N 38°30' W 008°56'0 0.0
2018-Feb-02 23:30N 38°30' W 008°56'0 0.0
2018-Feb-02 22:45N 38°30' W 008°56'0 0.0
2018-Feb-02 22:30N 38°30' W 008°56'0 0.0
2018-Feb-02 21:54N 38°30' W 008°56'0 0.0
2018-Feb-02 21:30N 38°30' W 008°56'0 0.0
2018-Feb-02 20:54N 38°30' W 008°56'0 0.0
2018-Feb-02 20:30N 38°30' W 008°56'0 0.0
2018-Feb-02 20:00N 38°30' W 008°56'0 0.0
2018-Feb-02 19:00N 38°30' W 008°56'0 0.0
2018-Feb-02 18:27N 38°30' W 008°56'0 0.0
2018-Feb-02 18:00N 38°30' W 008°56'0 0.0
2018-Feb-02 17:27N 38°30' W 008°56'0 0.0
2018-Feb-02 17:00N 38°30' W 008°56'0 0.0
2018-Feb-02 16:30N 38°30' W 008°56'0 0.0
2018-Feb-02 15:30N 38°30' W 008°56'0 0.0
2018-Feb-02 14:30N 38°30' W 008°56'0 0.0
2018-Feb-02 14:00N 38°30' W 008°56'0 0.0
2018-Feb-02 13:30N 38°30' W 008°56'0 0.0
2018-Feb-02 12:57N 38°30' W 008°56'0 0.0
2018-Feb-02 12:30N 38°30' W 008°56'0 0.0
2018-Feb-02 12:00N 38°30' W 008°56'0 0.0
2018-Feb-02 11:30N 38°30' W 008°56'0 0.0
2018-Feb-02 11:00N 38°30' W 008°56'0 0.0
2018-Feb-02 10:30N 38°30' W 008°56'0 0.0
2018-Feb-02 10:00N 38°30' W 008°56'0 0.0
2018-Feb-02 09:30N 38°30' W 008°56'0 0.0
2018-Feb-02 08:57N 38°30' W 008°56'0 0.0
2018-Feb-02 08:30N 38°30' W 008°56'0 0.0
2018-Feb-02 07:57N 38°30' W 008°56'0 0.0
2018-Feb-02 07:27N 38°30' W 008°56'0 0.0
2018-Feb-02 06:54N 38°30' W 008°56'0 0.0
2018-Feb-02 06:27N 38°30' W 008°56'0 0.0
2018-Feb-02 06:00N 38°30' W 008°56'0 0.0
2018-Feb-02 05:27N 38°30' W 008°56'0 0.0
2018-Feb-02 05:00N 38°30' W 008°56'0 0.0
2018-Feb-02 04:24N 38°30' W 008°56'0 0.0
2018-Feb-02 03:51N 38°30' W 008°56'0 0.0
2018-Feb-02 03:27N 38°30' W 008°56'0 0.0
2018-Feb-02 02:51N 38°30' W 008°56'0 0.0
2018-Feb-02 02:27N 38°30' W 008°56'0 0.0
2018-Feb-02 01:57N 38°30' W 008°56'0 0.0
2018-Feb-02 01:30N 38°30' W 008°56'0 0.0
2018-Feb-02 00:57N 38°30' W 008°56'0 0.0
2018-Feb-02 00:27N 38°30' W 008°56'0 0.0
2018-Feb-01 23:45N 38°30' W 008°56'0 0.0
2018-Feb-01 23:18N 38°30' W 008°56'0 0.0
2018-Feb-01 23:00N 38°30' W 008°56'0 0.0
2018-Feb-01 22:00N 38°30' W 008°56'0 0.0
2018-Feb-01 21:24N 38°30' W 008°56'0 0.0
2018-Feb-01 19:30N 38°30' W 008°56'0 0.0
2018-Feb-01 18:54N 38°30' W 008°56'0 0.0
2018-Feb-01 18:30N 38°30' W 008°56'0 0.0
2018-Feb-01 17:51N 38°30' W 008°56'0 0.0
2018-Feb-01 17:30N 38°30' W 008°56'0 0.0
2018-Feb-01 17:00N 38°30' W 008°56'0 0.0
2018-Feb-01 16:27N 38°30' W 008°56'0 0.0
2018-Feb-01 16:00N 38°30' W 008°56'0 0.0
2018-Feb-01 15:30N 38°30' W 008°56'0 0.0
2018-Feb-01 15:00N 38°30' W 008°56'0 0.0
2018-Feb-01 13:30N 38°30' W 008°56'0 0.0
2018-Feb-01 12:54N 38°30' W 008°56'0 0.0
2018-Feb-01 12:27N 38°30' W 008°56'0 0.0
2018-Feb-01 12:00N 38°30' W 008°56'0 0.0
2018-Feb-01 10:57N 38°30' W 008°56'0 0.0
2018-Feb-01 10:30N 38°30' W 008°56'0 0.0
2018-Feb-01 10:00N 38°30' W 008°56'0 0.0
2018-Feb-01 09:30N 38°30' W 008°56'0 0.0
2018-Feb-01 09:00N 38°30' W 008°56'0 0.0
2018-Feb-01 08:30N 38°30' W 008°56'0 0.0
2018-Feb-01 07:30N 38°30' W 008°56'0 0.0
2018-Feb-01 07:00N 38°30' W 008°56'0 0.0
2018-Feb-01 06:30N 38°30' W 008°56'0 0.0
2018-Feb-01 05:57N 38°30' W 008°56'0 0.0
2018-Feb-01 05:30N 38°30' W 008°56'0 0.0
2018-Feb-01 05:00N 38°30' W 008°56'0 0.0
2018-Feb-01 04:30N 38°30' W 008°56'0 0.0
2018-Feb-01 04:00N 38°30' W 008°56'0 0.0
2018-Feb-01 02:51N 38°30' W 008°56'0 0.0
2018-Feb-01 02:27N 38°30' W 008°56'0 0.0
2018-Feb-01 01:54N 38°30' W 008°56'0 0.0
2018-Feb-01 01:30N 38°30' W 008°56'0 0.0
2018-Feb-01 01:00N 38°30' W 008°56'0 0.0
2018-Feb-01 00:30N 38°30' W 008°56'0 0.0
2018-Jan-31 23:57N 38°30' W 008°56'0 0.0
2018-Jan-31 23:00N 38°30' W 008°56'0 0.0
2018-Jan-31 22:30N 38°30' W 008°56'0 0.0
2018-Jan-31 21:00N 38°30' W 008°56'0 0.0
2018-Jan-31 20:30N 38°30' W 008°56'0 0.0
2018-Jan-31 20:00N 38°30' W 008°56'0 0.0
2018-Jan-31 19:30N 38°30' W 008°56'0 0.0
2018-Jan-31 19:00N 38°30' W 008°56'0 0.0
2018-Jan-31 18:30N 38°30' W 008°56'0 0.0
2018-Jan-31 18:00N 38°30' W 008°56'0 0.0
2018-Jan-31 17:30N 38°30' W 008°56'0 0.0
2018-Jan-31 17:00N 38°30' W 008°56'0 0.0
2018-Jan-31 16:30N 38°30' W 008°56'0 0.0
2018-Jan-31 16:00N 38°30' W 008°56'0 0.0
2018-Jan-31 15:30N 38°30' W 008°56'0 0.0
2018-Jan-31 15:00N 38°30' W 008°56'0 0.0
2018-Jan-31 14:30N 38°30' W 008°56'0 0.0
2018-Jan-31 12:57N 38°30' W 008°56'0 0.0
2018-Jan-31 12:30N 38°30' W 008°56'0 0.0
2018-Jan-31 12:00N 38°30' W 008°56'0 0.0
2018-Jan-31 11:30N 38°30' W 008°56'0 0.0
2018-Jan-31 11:00N 38°30' W 008°56'0 0.0
2018-Jan-31 10:30N 38°30' W 008°56'0 0.0
2018-Jan-31 10:00N 38°30' W 008°56'0 0.0
2018-Jan-31 09:30N 38°30' W 008°56'0 0.0
2018-Jan-31 09:00N 38°30' W 008°56'0 0.0
2018-Jan-31 08:27N 38°30' W 008°56'0 0.0
2018-Jan-31 08:00N 38°30' W 008°56'0 0.0
2018-Jan-31 07:30N 38°30' W 008°56'0 0.0
2018-Jan-31 06:57N 38°30' W 008°56'0 0.0
2018-Jan-31 06:30N 38°30' W 008°56'0 0.0
2018-Jan-31 06:00N 38°30' W 008°56'0 0.0
2018-Jan-31 05:30N 38°30' W 008°56'0 0.0
2018-Jan-31 05:00N 38°30' W 008°56'0 0.0
2018-Jan-31 04:30N 38°30' W 008°56'0 0.0
2018-Jan-31 04:00N 38°30' W 008°56'0 0.0
2018-Jan-31 03:30N 38°30' W 008°56'0 0.0
2018-Jan-31 03:00N 38°30' W 008°56'0 0.0
2018-Jan-31 02:30N 38°30' W 008°56'0 0.0
2018-Jan-31 02:00N 38°30' W 008°56'0 0.0
2018-Jan-31 01:30N 38°30' W 008°56'0 0.0
2018-Jan-31 01:00N 38°30' W 008°56'0 0.0
2018-Jan-31 00:00N 38°30' W 008°56'0 0.0
2018-Jan-30 23:30N 38°30' W 008°56'0 0.0
2018-Jan-30 23:00N 38°30' W 008°56'0 0.0
2018-Jan-30 22:24N 38°30' W 008°56'0 0.0
2018-Jan-30 21:30N 38°30' W 008°56'0 0.0
2018-Jan-30 21:00N 38°30' W 008°56'0 0.4
2018-Jan-30 20:30N 38°29' W 008°56'3 5.1
2018-Jan-30 20:00N 38°27' W 008°58'  

Dump ship's entire track history